sensor_id;sensor_type;location;lat;lon;timestamp;P1;durP1;ratioP1;P2;durP2;ratioP2
15645;SDS011;7922;43.622;1.476;2023-12-20T00:00:56;16.80;;;14.80;;
15645;SDS011;7922;43.622;1.476;2023-12-20T00:03:21;18.17;;;15.03;;
15645;SDS011;7922;43.622;1.476;2023-12-20T00:05:47;16.57;;;14.90;;
15645;SDS011;7922;43.622;1.476;2023-12-20T00:08:12;17.93;;;14.97;;
15645;SDS011;7922;43.622;1.476;2023-12-20T00:10:38;16.77;;;14.97;;
15645;SDS011;7922;43.622;1.476;2023-12-20T00:13:03;16.83;;;15.03;;
15645;SDS011;7922;43.622;1.476;2023-12-20T00:15:29;16.90;;;14.60;;
15645;SDS011;7922;43.622;1.476;2023-12-20T00:17:54;16.60;;;14.70;;
15645;SDS011;7922;43.622;1.476;2023-12-20T00:20:19;17.13;;;14.43;;
15645;SDS011;7922;43.622;1.476;2023-12-20T00:22:44;16.27;;;14.60;;
15645;SDS011;7922;43.622;1.476;2023-12-20T00:25:10;16.20;;;14.50;;
15645;SDS011;7922;43.622;1.476;2023-12-20T00:27:35;16.37;;;14.63;;
15645;SDS011;7922;43.622;1.476;2023-12-20T00:30:00;16.93;;;15.20;;
15645;SDS011;7922;43.622;1.476;2023-12-20T00:32:25;15.93;;;14.33;;
15645;SDS011;7922;43.622;1.476;2023-12-20T00:34:51;19.73;;;14.67;;
15645;SDS011;7922;43.622;1.476;2023-12-20T00:37:16;16.13;;;14.17;;
15645;SDS011;7922;43.622;1.476;2023-12-20T00:39:41;16.10;;;14.20;;
15645;SDS011;7922;43.622;1.476;2023-12-20T00:42:07;18.30;;;14.90;;
15645;SDS011;7922;43.622;1.476;2023-12-20T00:44:32;16.43;;;14.73;;
15645;SDS011;7922;43.622;1.476;2023-12-20T00:46:57;16.63;;;14.37;;
15645;SDS011;7922;43.622;1.476;2023-12-20T00:49:22;17.87;;;15.80;;
15645;SDS011;7922;43.622;1.476;2023-12-20T00:51:48;17.20;;;15.07;;
15645;SDS011;7922;43.622;1.476;2023-12-20T00:54:13;17.43;;;15.13;;
15645;SDS011;7922;43.622;1.476;2023-12-20T00:56:38;18.73;;;15.37;;
15645;SDS011;7922;43.622;1.476;2023-12-20T00:59:03;17.90;;;15.67;;
15645;SDS011;7922;43.622;1.476;2023-12-20T01:01:29;17.43;;;15.67;;
15645;SDS011;7922;43.622;1.476;2023-12-20T01:03:54;21.17;;;16.97;;
15645;SDS011;7922;43.622;1.476;2023-12-20T01:06:19;19.13;;;17.13;;
15645;SDS011;7922;43.622;1.476;2023-12-20T01:08:44;18.57;;;16.50;;
15645;SDS011;7922;43.622;1.476;2023-12-20T01:11:10;18.93;;;17.00;;
15645;SDS011;7922;43.622;1.476;2023-12-20T01:13:35;20.00;;;16.73;;
15645;SDS011;7922;43.622;1.476;2023-12-20T01:16:00;18.63;;;16.73;;
15645;SDS011;7922;43.622;1.476;2023-12-20T01:18:26;17.73;;;15.83;;
15645;SDS011;7922;43.622;1.476;2023-12-20T01:20:51;18.27;;;16.43;;
15645;SDS011;7922;43.622;1.476;2023-12-20T01:23:16;18.40;;;16.40;;
15645;SDS011;7922;43.622;1.476;2023-12-20T01:25:42;18.00;;;16.10;;
15645;SDS011;7922;43.622;1.476;2023-12-20T01:28:07;18.83;;;16.83;;
15645;SDS011;7922;43.622;1.476;2023-12-20T01:30:32;18.50;;;16.70;;
15645;SDS011;7922;43.622;1.476;2023-12-20T01:32:59;18.13;;;16.23;;
15645;SDS011;7922;43.622;1.476;2023-12-20T01:35:25;19.13;;;16.63;;
15645;SDS011;7922;43.622;1.476;2023-12-20T01:37:50;17.67;;;15.80;;
15645;SDS011;7922;43.622;1.476;2023-12-20T01:40:16;17.73;;;15.83;;
15645;SDS011;7922;43.622;1.476;2023-12-20T01:42:41;18.77;;;16.27;;
15645;SDS011;7922;43.622;1.476;2023-12-20T01:45:06;17.87;;;16.07;;
15645;SDS011;7922;43.622;1.476;2023-12-20T01:47:32;15.97;;;14.37;;
15645;SDS011;7922;43.622;1.476;2023-12-20T01:49:57;17.07;;;15.40;;
15645;SDS011;7922;43.622;1.476;2023-12-20T01:52:23;17.43;;;15.63;;
15645;SDS011;7922;43.622;1.476;2023-12-20T01:54:50;17.20;;;15.33;;
15645;SDS011;7922;43.622;1.476;2023-12-20T01:57:16;17.27;;;15.50;;
15645;SDS011;7922;43.622;1.476;2023-12-20T01:59:41;16.37;;;14.70;;
15645;SDS011;7922;43.622;1.476;2023-12-20T02:02:07;16.63;;;14.90;;
15645;SDS011;7922;43.622;1.476;2023-12-20T02:04:32;17.13;;;15.33;;
15645;SDS011;7922;43.622;1.476;2023-12-20T02:06:58;17.23;;;15.50;;
15645;SDS011;7922;43.622;1.476;2023-12-20T02:09:24;16.63;;;14.80;;
15645;SDS011;7922;43.622;1.476;2023-12-20T02:11:49;15.73;;;14.13;;
15645;SDS011;7922;43.622;1.476;2023-12-20T02:14:15;18.23;;;16.33;;
15645;SDS011;7922;43.622;1.476;2023-12-20T02:16:40;17.40;;;15.47;;
15645;SDS011;7922;43.622;1.476;2023-12-20T02:19:07;17.20;;;15.50;;
15645;SDS011;7922;43.622;1.476;2023-12-20T02:21:38;16.83;;;15.13;;
15645;SDS011;7922;43.622;1.476;2023-12-20T02:24:03;17.27;;;15.67;;
15645;SDS011;7922;43.622;1.476;2023-12-20T02:26:28;17.23;;;15.40;;
15645;SDS011;7922;43.622;1.476;2023-12-20T02:28:54;17.80;;;15.93;;
15645;SDS011;7922;43.622;1.476;2023-12-20T02:31:23;17.03;;;15.23;;
15645;SDS011;7922;43.622;1.476;2023-12-20T02:33:48;16.63;;;14.93;;
15645;SDS011;7922;43.622;1.476;2023-12-20T02:36:13;16.80;;;15.07;;
15645;SDS011;7922;43.622;1.476;2023-12-20T02:38:39;16.43;;;14.67;;
15645;SDS011;7922;43.622;1.476;2023-12-20T02:41:04;17.57;;;15.53;;
15645;SDS011;7922;43.622;1.476;2023-12-20T02:43:29;16.47;;;14.73;;
15645;SDS011;7922;43.622;1.476;2023-12-20T02:45:54;16.83;;;14.47;;
15645;SDS011;7922;43.622;1.476;2023-12-20T02:48:20;14.60;;;13.27;;
15645;SDS011;7922;43.622;1.476;2023-12-20T02:50:46;14.60;;;13.20;;
15645;SDS011;7922;43.622;1.476;2023-12-20T02:53:12;15.47;;;13.70;;
15645;SDS011;7922;43.622;1.476;2023-12-20T02:55:38;15.10;;;13.50;;
15645;SDS011;7922;43.622;1.476;2023-12-20T02:58:03;15.93;;;14.30;;
15645;SDS011;7922;43.622;1.476;2023-12-20T03:00:28;14.87;;;13.30;;
15645;SDS011;7922;43.622;1.476;2023-12-20T03:02:53;15.60;;;14.00;;
15645;SDS011;7922;43.622;1.476;2023-12-20T03:05:19;16.07;;;14.37;;
15645;SDS011;7922;43.622;1.476;2023-12-20T03:07:44;16.23;;;14.37;;
15645;SDS011;7922;43.622;1.476;2023-12-20T03:10:09;15.33;;;13.77;;
15645;SDS011;7922;43.622;1.476;2023-12-20T03:12:34;15.07;;;13.50;;
15645;SDS011;7922;43.622;1.476;2023-12-20T03:15:00;15.90;;;14.30;;
15645;SDS011;7922;43.622;1.476;2023-12-20T03:17:25;16.03;;;14.43;;
15645;SDS011;7922;43.622;1.476;2023-12-20T03:19:50;16.63;;;14.93;;
15645;SDS011;7922;43.622;1.476;2023-12-20T03:22:16;16.90;;;15.10;;
15645;SDS011;7922;43.622;1.476;2023-12-20T03:24:41;17.53;;;15.73;;
15645;SDS011;7922;43.622;1.476;2023-12-20T03:27:06;15.97;;;14.37;;
15645;SDS011;7922;43.622;1.476;2023-12-20T03:29:31;17.23;;;15.43;;
15645;SDS011;7922;43.622;1.476;2023-12-20T03:31:57;16.73;;;15.13;;
15645;SDS011;7922;43.622;1.476;2023-12-20T03:34:22;17.67;;;15.60;;
15645;SDS011;7922;43.622;1.476;2023-12-20T03:36:47;18.13;;;14.80;;
15645;SDS011;7922;43.622;1.476;2023-12-20T03:39:12;17.30;;;15.50;;
15645;SDS011;7922;43.622;1.476;2023-12-20T03:41:38;18.00;;;16.10;;
15645;SDS011;7922;43.622;1.476;2023-12-20T03:44:03;18.53;;;16.53;;
15645;SDS011;7922;43.622;1.476;2023-12-20T03:46:29;16.43;;;14.73;;
15645;SDS011;7922;43.622;1.476;2023-12-20T03:48:54;17.93;;;15.77;;
15645;SDS011;7922;43.622;1.476;2023-12-20T03:51:19;17.23;;;15.43;;
15645;SDS011;7922;43.622;1.476;2023-12-20T03:53:44;17.10;;;15.40;;
15645;SDS011;7922;43.622;1.476;2023-12-20T03:56:10;17.77;;;15.97;;
15645;SDS011;7922;43.622;1.476;2023-12-20T03:58:35;17.93;;;16.23;;
15645;SDS011;7922;43.622;1.476;2023-12-20T04:01:00;18.27;;;16.40;;
15645;SDS011;7922;43.622;1.476;2023-12-20T04:03:25;16.03;;;14.40;;
15645;SDS011;7922;43.622;1.476;2023-12-20T04:05:51;17.27;;;15.07;;
15645;SDS011;7922;43.622;1.476;2023-12-20T04:08:16;17.43;;;15.60;;
15645;SDS011;7922;43.622;1.476;2023-12-20T04:10:41;15.23;;;13.80;;
15645;SDS011;7922;43.622;1.476;2023-12-20T04:13:06;16.10;;;14.50;;
15645;SDS011;7922;43.622;1.476;2023-12-20T04:15:32;16.00;;;14.30;;
15645;SDS011;7922;43.622;1.476;2023-12-20T04:17:57;15.83;;;14.03;;
15645;SDS011;7922;43.622;1.476;2023-12-20T04:20:22;16.00;;;14.37;;
15645;SDS011;7922;43.622;1.476;2023-12-20T04:22:48;16.43;;;14.83;;
15645;SDS011;7922;43.622;1.476;2023-12-20T04:25:13;17.57;;;14.67;;
15645;SDS011;7922;43.622;1.476;2023-12-20T04:27:38;15.03;;;13.63;;
15645;SDS011;7922;43.622;1.476;2023-12-20T04:30:04;15.27;;;13.80;;
15645;SDS011;7922;43.622;1.476;2023-12-20T04:32:29;15.40;;;13.87;;
15645;SDS011;7922;43.622;1.476;2023-12-20T04:34:55;14.93;;;13.53;;
15645;SDS011;7922;43.622;1.476;2023-12-20T04:37:20;15.30;;;13.37;;
15645;SDS011;7922;43.622;1.476;2023-12-20T04:39:45;14.67;;;13.17;;
15645;SDS011;7922;43.622;1.476;2023-12-20T04:42:10;15.77;;;14.10;;
15645;SDS011;7922;43.622;1.476;2023-12-20T04:44:36;15.90;;;14.13;;
15645;SDS011;7922;43.622;1.476;2023-12-20T04:47:01;13.97;;;12.47;;
15645;SDS011;7922;43.622;1.476;2023-12-20T04:49:26;13.60;;;12.30;;
15645;SDS011;7922;43.622;1.476;2023-12-20T04:51:52;14.00;;;12.47;;
15645;SDS011;7922;43.622;1.476;2023-12-20T04:54:20;13.17;;;11.87;;
15645;SDS011;7922;43.622;1.476;2023-12-20T04:56:45;13.63;;;12.23;;
15645;SDS011;7922;43.622;1.476;2023-12-20T04:59:10;13.47;;;12.10;;
15645;SDS011;7922;43.622;1.476;2023-12-20T05:01:35;12.10;;;10.87;;
15645;SDS011;7922;43.622;1.476;2023-12-20T05:04:01;13.83;;;12.17;;
15645;SDS011;7922;43.622;1.476;2023-12-20T05:06:26;13.63;;;10.97;;
15645;SDS011;7922;43.622;1.476;2023-12-20T05:08:51;11.40;;;10.27;;
15645;SDS011;7922;43.622;1.476;2023-12-20T05:11:17;11.63;;;10.40;;
15645;SDS011;7922;43.622;1.476;2023-12-20T05:13:42;10.37;;;9.37;;
15645;SDS011;7922;43.622;1.476;2023-12-20T05:16:07;10.97;;;9.87;;
15645;SDS011;7922;43.622;1.476;2023-12-20T05:18:33;10.47;;;9.47;;
15645;SDS011;7922;43.622;1.476;2023-12-20T05:20:58;9.40;;;8.50;;
15645;SDS011;7922;43.622;1.476;2023-12-20T05:23:23;10.60;;;9.60;;
15645;SDS011;7922;43.622;1.476;2023-12-20T05:25:48;10.00;;;8.63;;
15645;SDS011;7922;43.622;1.476;2023-12-20T05:28:14;9.87;;;8.87;;
15645;SDS011;7922;43.622;1.476;2023-12-20T05:30:40;9.87;;;8.87;;
15645;SDS011;7922;43.622;1.476;2023-12-20T05:33:05;8.80;;;8.00;;
15645;SDS011;7922;43.622;1.476;2023-12-20T05:35:31;9.10;;;8.20;;
15645;SDS011;7922;43.622;1.476;2023-12-20T05:37:56;8.17;;;7.00;;
15645;SDS011;7922;43.622;1.476;2023-12-20T05:40:21;7.30;;;6.60;;
15645;SDS011;7922;43.622;1.476;2023-12-20T05:42:46;7.27;;;6.57;;
15645;SDS011;7922;43.622;1.476;2023-12-20T05:45:12;6.70;;;6.10;;
15645;SDS011;7922;43.622;1.476;2023-12-20T05:47:37;5.50;;;5.03;;
15645;SDS011;7922;43.622;1.476;2023-12-20T05:50:03;6.87;;;6.17;;
15645;SDS011;7922;43.622;1.476;2023-12-20T05:52:28;6.63;;;6.03;;
15645;SDS011;7922;43.622;1.476;2023-12-20T05:54:54;6.40;;;5.80;;
15645;SDS011;7922;43.622;1.476;2023-12-20T05:57:19;6.73;;;5.93;;
15645;SDS011;7922;43.622;1.476;2023-12-20T05:59:44;6.13;;;5.53;;
15645;SDS011;7922;43.622;1.476;2023-12-20T06:02:10;6.07;;;5.50;;
15645;SDS011;7922;43.622;1.476;2023-12-20T06:04:35;5.73;;;5.23;;
15645;SDS011;7922;43.622;1.476;2023-12-20T06:07:00;5.53;;;5.03;;
15645;SDS011;7922;43.622;1.476;2023-12-20T06:09:28;5.90;;;5.30;;
15645;SDS011;7922;43.622;1.476;2023-12-20T06:11:53;6.17;;;5.63;;
15645;SDS011;7922;43.622;1.476;2023-12-20T06:14:19;6.27;;;5.67;;
15645;SDS011;7922;43.622;1.476;2023-12-20T06:16:45;6.20;;;5.60;;
15645;SDS011;7922;43.622;1.476;2023-12-20T06:19:10;5.77;;;5.30;;
15645;SDS011;7922;43.622;1.476;2023-12-20T06:21:35;6.03;;;5.53;;
15645;SDS011;7922;43.622;1.476;2023-12-20T06:24:01;5.93;;;5.43;;
15645;SDS011;7922;43.622;1.476;2023-12-20T06:26:26;5.60;;;4.97;;
15645;SDS011;7922;43.622;1.476;2023-12-20T06:28:51;6.07;;;5.57;;
15645;SDS011;7922;43.622;1.476;2023-12-20T06:31:16;5.33;;;4.83;;
15645;SDS011;7922;43.622;1.476;2023-12-20T06:33:42;5.80;;;5.30;;
15645;SDS011;7922;43.622;1.476;2023-12-20T06:36:10;5.90;;;5.40;;
15645;SDS011;7922;43.622;1.476;2023-12-20T06:38:36;6.47;;;5.90;;
15645;SDS011;7922;43.622;1.476;2023-12-20T06:41:01;6.43;;;5.60;;
15645;SDS011;7922;43.622;1.476;2023-12-20T06:43:27;5.37;;;4.83;;
15645;SDS011;7922;43.622;1.476;2023-12-20T06:45:52;5.93;;;4.50;;
15645;SDS011;7922;43.622;1.476;2023-12-20T06:48:17;4.87;;;4.47;;
15645;SDS011;7922;43.622;1.476;2023-12-20T06:50:43;4.50;;;4.10;;
15645;SDS011;7922;43.622;1.476;2023-12-20T06:53:08;4.50;;;4.10;;
15645;SDS011;7922;43.622;1.476;2023-12-20T06:55:34;3.93;;;3.63;;
15645;SDS011;7922;43.622;1.476;2023-12-20T06:58:01;4.03;;;3.50;;
15645;SDS011;7922;43.622;1.476;2023-12-20T07:00:26;3.47;;;3.17;;
15645;SDS011;7922;43.622;1.476;2023-12-20T07:02:52;3.43;;;3.10;;
15645;SDS011;7922;43.622;1.476;2023-12-20T07:05:17;2.87;;;2.63;;
15645;SDS011;7922;43.622;1.476;2023-12-20T07:07:42;3.03;;;2.77;;
15645;SDS011;7922;43.622;1.476;2023-12-20T07:10:08;2.90;;;2.70;;
15645;SDS011;7922;43.622;1.476;2023-12-20T07:12:33;2.73;;;2.53;;
15645;SDS011;7922;43.622;1.476;2023-12-20T07:14:58;3.60;;;2.97;;
15645;SDS011;7922;43.622;1.476;2023-12-20T07:17:23;3.20;;;2.90;;
15645;SDS011;7922;43.622;1.476;2023-12-20T07:19:49;3.30;;;2.90;;
15645;SDS011;7922;43.622;1.476;2023-12-20T07:22:14;3.73;;;3.33;;
15645;SDS011;7922;43.622;1.476;2023-12-20T07:24:39;3.17;;;2.90;;
15645;SDS011;7922;43.622;1.476;2023-12-20T07:27:05;3.67;;;3.33;;
15645;SDS011;7922;43.622;1.476;2023-12-20T07:29:30;3.00;;;2.80;;
15645;SDS011;7922;43.622;1.476;2023-12-20T07:31:55;3.37;;;3.07;;
15645;SDS011;7922;43.622;1.476;2023-12-20T07:34:21;3.27;;;2.97;;
15645;SDS011;7922;43.622;1.476;2023-12-20T07:36:46;3.27;;;2.97;;
15645;SDS011;7922;43.622;1.476;2023-12-20T07:39:11;3.30;;;3.00;;
15645;SDS011;7922;43.622;1.476;2023-12-20T07:41:37;2.63;;;2.43;;
15645;SDS011;7922;43.622;1.476;2023-12-20T07:44:04;2.80;;;2.60;;
15645;SDS011;7922;43.622;1.476;2023-12-20T07:46:29;2.90;;;2.70;;
15645;SDS011;7922;43.622;1.476;2023-12-20T07:48:54;3.00;;;2.80;;
15645;SDS011;7922;43.622;1.476;2023-12-20T07:51:20;3.97;;;2.70;;
15645;SDS011;7922;43.622;1.476;2023-12-20T07:53:45;2.67;;;2.43;;
15645;SDS011;7922;43.622;1.476;2023-12-20T07:56:15;3.00;;;2.80;;
15645;SDS011;7922;43.622;1.476;2023-12-20T07:58:41;4.60;;;2.90;;
15645;SDS011;7922;43.622;1.476;2023-12-20T08:01:07;2.57;;;2.37;;
15645;SDS011;7922;43.622;1.476;2023-12-20T08:03:32;2.50;;;2.30;;
15645;SDS011;7922;43.622;1.476;2023-12-20T08:05:57;3.33;;;3.10;;
15645;SDS011;7922;43.622;1.476;2023-12-20T08:08:23;2.67;;;2.47;;
15645;SDS011;7922;43.622;1.476;2023-12-20T08:10:48;2.80;;;2.60;;
15645;SDS011;7922;43.622;1.476;2023-12-20T08:13:13;3.10;;;2.67;;
15645;SDS011;7922;43.622;1.476;2023-12-20T08:15:38;3.20;;;2.90;;
15645;SDS011;7922;43.622;1.476;2023-12-20T08:18:04;4.03;;;2.40;;
15645;SDS011;7922;43.622;1.476;2023-12-20T08:20:29;2.27;;;2.07;;
15645;SDS011;7922;43.622;1.476;2023-12-20T08:22:55;2.57;;;2.37;;
15645;SDS011;7922;43.622;1.476;2023-12-20T08:25:20;1.87;;;1.77;;
15645;SDS011;7922;43.622;1.476;2023-12-20T08:27:45;1.90;;;1.80;;
15645;SDS011;7922;43.622;1.476;2023-12-20T08:30:10;2.23;;;2.03;;
15645;SDS011;7922;43.622;1.476;2023-12-20T08:32:36;2.47;;;2.27;;
15645;SDS011;7922;43.622;1.476;2023-12-20T08:35:01;2.47;;;2.27;;
15645;SDS011;7922;43.622;1.476;2023-12-20T08:37:26;2.70;;;2.50;;
15645;SDS011;7922;43.622;1.476;2023-12-20T08:39:52;2.70;;;2.50;;
15645;SDS011;7922;43.622;1.476;2023-12-20T08:42:17;3.10;;;2.90;;
15645;SDS011;7922;43.622;1.476;2023-12-20T08:44:43;3.13;;;2.80;;
15645;SDS011;7922;43.622;1.476;2023-12-20T08:47:08;3.20;;;2.90;;
15645;SDS011;7922;43.622;1.476;2023-12-20T08:49:33;3.50;;;3.20;;
15645;SDS011;7922;43.622;1.476;2023-12-20T08:51:58;3.67;;;3.27;;
15645;SDS011;7922;43.622;1.476;2023-12-20T08:54:24;4.50;;;4.10;;
15645;SDS011;7922;43.622;1.476;2023-12-20T08:56:49;3.70;;;3.20;;
15645;SDS011;7922;43.622;1.476;2023-12-20T08:59:14;4.60;;;3.30;;
15645;SDS011;7922;43.622;1.476;2023-12-20T09:01:40;3.20;;;2.90;;
15645;SDS011;7922;43.622;1.476;2023-12-20T09:04:05;3.60;;;3.30;;
15645;SDS011;7922;43.622;1.476;2023-12-20T09:06:30;4.57;;;3.50;;
15645;SDS011;7922;43.622;1.476;2023-12-20T09:08:55;3.57;;;3.27;;
15645;SDS011;7922;43.622;1.476;2023-12-20T09:11:21;3.60;;;3.30;;
15645;SDS011;7922;43.622;1.476;2023-12-20T09:13:46;3.47;;;3.13;;
15645;SDS011;7922;43.622;1.476;2023-12-20T09:16:11;4.43;;;3.87;;
15645;SDS011;7922;43.622;1.476;2023-12-20T09:18:37;5.60;;;3.27;;
15645;SDS011;7922;43.622;1.476;2023-12-20T09:21:02;3.93;;;3.53;;
15645;SDS011;7922;43.622;1.476;2023-12-20T09:23:27;6.00;;;3.10;;
15645;SDS011;7922;43.622;1.476;2023-12-20T09:25:53;3.63;;;3.33;;
15645;SDS011;7922;43.622;1.476;2023-12-20T09:28:18;4.70;;;3.47;;
15645;SDS011;7922;43.622;1.476;2023-12-20T09:30:43;3.23;;;2.93;;
15645;SDS011;7922;43.622;1.476;2023-12-20T09:33:09;3.20;;;2.90;;
15645;SDS011;7922;43.622;1.476;2023-12-20T09:35:34;3.60;;;3.00;;
15645;SDS011;7922;43.622;1.476;2023-12-20T09:37:59;4.37;;;3.33;;
15645;SDS011;7922;43.622;1.476;2023-12-20T09:40:25;3.40;;;2.80;;
15645;SDS011;7922;43.622;1.476;2023-12-20T09:42:56;2.97;;;2.73;;
15645;SDS011;7922;43.622;1.476;2023-12-20T09:45:22;3.20;;;2.50;;
15645;SDS011;7922;43.622;1.476;2023-12-20T09:47:49;8.20;;;4.27;;
15645;SDS011;7922;43.622;1.476;2023-12-20T09:50:15;3.87;;;3.20;;
15645;SDS011;7922;43.622;1.476;2023-12-20T09:52:42;3.27;;;2.40;;
15645;SDS011;7922;43.622;1.476;2023-12-20T09:55:09;2.73;;;2.23;;
15645;SDS011;7922;43.622;1.476;2023-12-20T09:57:35;3.57;;;1.60;;
15645;SDS011;7922;43.622;1.476;2023-12-20T10:00:00;3.67;;;1.80;;
15645;SDS011;7922;43.622;1.476;2023-12-20T10:02:26;3.03;;;1.90;;
15645;SDS011;7922;43.622;1.476;2023-12-20T10:04:54;2.70;;;1.83;;
15645;SDS011;7922;43.622;1.476;2023-12-20T10:07:19;2.17;;;1.83;;
15645;SDS011;7922;43.622;1.476;2023-12-20T10:09:44;4.60;;;2.40;;
15645;SDS011;7922;43.622;1.476;2023-12-20T10:12:11;3.30;;;2.00;;
15645;SDS011;7922;43.622;1.476;2023-12-20T10:14:37;3.47;;;2.20;;
15645;SDS011;7922;43.622;1.476;2023-12-20T10:17:04;3.53;;;2.20;;
15645;SDS011;7922;43.622;1.476;2023-12-20T10:19:33;3.67;;;2.20;;
15645;SDS011;7922;43.622;1.476;2023-12-20T10:21:59;4.47;;;2.40;;
15645;SDS011;7922;43.622;1.476;2023-12-20T10:24:24;4.23;;;2.10;;
15645;SDS011;7922;43.622;1.476;2023-12-20T10:27:00;3.37;;;2.23;;
15645;SDS011;7922;43.622;1.476;2023-12-20T10:29:33;3.67;;;2.63;;
15645;SDS011;7922;43.622;1.476;2023-12-20T10:31:59;6.27;;;2.57;;
15645;SDS011;7922;43.622;1.476;2023-12-20T10:34:27;3.53;;;2.57;;
15645;SDS011;7922;43.622;1.476;2023-12-20T10:36:53;3.70;;;2.37;;
15645;SDS011;7922;43.622;1.476;2023-12-20T10:39:18;3.10;;;2.40;;
15645;SDS011;7922;43.622;1.476;2023-12-20T10:41:44;2.37;;;1.83;;
15645;SDS011;7922;43.622;1.476;2023-12-20T10:44:11;4.80;;;2.00;;
15645;SDS011;7922;43.622;1.476;2023-12-20T10:46:37;4.40;;;2.40;;
15645;SDS011;7922;43.622;1.476;2023-12-20T10:49:04;2.47;;;1.90;;
15645;SDS011;7922;43.622;1.476;2023-12-20T10:51:32;2.97;;;2.20;;
15645;SDS011;7922;43.622;1.476;2023-12-20T10:53:59;2.80;;;1.93;;
15645;SDS011;7922;43.622;1.476;2023-12-20T10:56:24;3.97;;;1.73;;
15645;SDS011;7922;43.622;1.476;2023-12-20T10:58:52;4.07;;;1.83;;
15645;SDS011;7922;43.622;1.476;2023-12-20T11:01:19;3.20;;;1.70;;
15645;SDS011;7922;43.622;1.476;2023-12-20T11:03:47;3.77;;;1.90;;
15645;SDS011;7922;43.622;1.476;2023-12-20T11:06:19;2.77;;;1.67;;
15645;SDS011;7922;43.622;1.476;2023-12-20T11:08:51;4.73;;;1.60;;
15645;SDS011;7922;43.622;1.476;2023-12-20T11:14:17;3.63;;;1.60;;
15645;SDS011;7922;43.622;1.476;2023-12-20T11:16:47;3.07;;;1.63;;
15645;SDS011;7922;43.622;1.476;2023-12-20T11:19:12;2.77;;;1.67;;
15645;SDS011;7922;43.622;1.476;2023-12-20T11:21:38;4.60;;;2.23;;
15645;SDS011;7922;43.622;1.476;2023-12-20T11:24:05;4.10;;;1.70;;
15645;SDS011;7922;43.622;1.476;2023-12-20T11:26:30;3.53;;;1.57;;
15645;SDS011;7922;43.622;1.476;2023-12-20T11:32:02;3.93;;;1.90;;
15645;SDS011;7922;43.622;1.476;2023-12-20T11:34:29;3.00;;;1.80;;
15645;SDS011;7922;43.622;1.476;2023-12-20T11:36:58;4.37;;;1.80;;
15645;SDS011;7922;43.622;1.476;2023-12-20T11:39:24;3.57;;;1.80;;
15645;SDS011;7922;43.622;1.476;2023-12-20T11:41:51;2.90;;;1.57;;
15645;SDS011;7922;43.622;1.476;2023-12-20T11:44:17;2.57;;;1.50;;
15645;SDS011;7922;43.622;1.476;2023-12-20T11:46:42;3.57;;;1.57;;
15645;SDS011;7922;43.622;1.476;2023-12-20T11:49:09;2.03;;;1.70;;
15645;SDS011;7922;43.622;1.476;2023-12-20T11:51:34;2.60;;;1.60;;
15645;SDS011;7922;43.622;1.476;2023-12-20T11:53:59;3.30;;;1.70;;
15645;SDS011;7922;43.622;1.476;2023-12-20T11:56:25;2.40;;;1.20;;
15645;SDS011;7922;43.622;1.476;2023-12-20T11:58:50;4.40;;;1.30;;
15645;SDS011;7922;43.622;1.476;2023-12-20T12:01:15;3.07;;;1.30;;
15645;SDS011;7922;43.622;1.476;2023-12-20T12:03:41;4.10;;;1.37;;
15645;SDS011;7922;43.622;1.476;2023-12-20T12:06:06;3.37;;;1.23;;
15645;SDS011;7922;43.622;1.476;2023-12-20T12:08:31;3.87;;;1.20;;
15645;SDS011;7922;43.622;1.476;2023-12-20T12:10:57;1.87;;;1.30;;
15645;SDS011;7922;43.622;1.476;2023-12-20T12:13:22;2.37;;;1.57;;
15645;SDS011;7922;43.622;1.476;2023-12-20T12:15:48;4.30;;;1.33;;
15645;SDS011;7922;43.622;1.476;2023-12-20T12:18:16;3.57;;;1.30;;
15645;SDS011;7922;43.622;1.476;2023-12-20T12:20:42;3.43;;;1.80;;
15645;SDS011;7922;43.622;1.476;2023-12-20T12:23:07;4.40;;;1.70;;
15645;SDS011;7922;43.622;1.476;2023-12-20T12:25:34;2.67;;;1.23;;
15645;SDS011;7922;43.622;1.476;2023-12-20T12:28:01;4.60;;;1.30;;
15645;SDS011;7922;43.622;1.476;2023-12-20T12:30:26;6.37;;;1.30;;
15645;SDS011;7922;43.622;1.476;2023-12-20T12:32:52;2.43;;;1.40;;
15645;SDS011;7922;43.622;1.476;2023-12-20T12:35:18;5.13;;;1.60;;
15645;SDS011;7922;43.622;1.476;2023-12-20T12:37:44;4.30;;;1.57;;
15645;SDS011;7922;43.622;1.476;2023-12-20T12:40:13;4.27;;;2.13;;
15645;SDS011;7922;43.622;1.476;2023-12-20T12:42:40;3.27;;;1.60;;
15645;SDS011;7922;43.622;1.476;2023-12-20T12:45:06;3.73;;;1.90;;
15645;SDS011;7922;43.622;1.476;2023-12-20T12:47:32;4.80;;;1.60;;
15645;SDS011;7922;43.622;1.476;2023-12-20T12:49:58;6.00;;;1.43;;
15645;SDS011;7922;43.622;1.476;2023-12-20T12:52:23;2.37;;;1.33;;
15645;SDS011;7922;43.622;1.476;2023-12-20T12:54:49;3.30;;;1.50;;
15645;SDS011;7922;43.622;1.476;2023-12-20T12:57:14;3.20;;;1.63;;
15645;SDS011;7922;43.622;1.476;2023-12-20T12:59:40;4.43;;;1.33;;
15645;SDS011;7922;43.622;1.476;2023-12-20T13:02:05;4.20;;;1.43;;
15645;SDS011;7922;43.622;1.476;2023-12-20T13:04:31;5.23;;;1.60;;
15645;SDS011;7922;43.622;1.476;2023-12-20T13:06:56;3.43;;;1.53;;
15645;SDS011;7922;43.622;1.476;2023-12-20T13:09:22;3.20;;;1.50;;
15645;SDS011;7922;43.622;1.476;2023-12-20T13:11:47;3.73;;;1.57;;
15645;SDS011;7922;43.622;1.476;2023-12-20T13:14:12;3.57;;;1.47;;
15645;SDS011;7922;43.622;1.476;2023-12-20T13:16:37;2.23;;;1.30;;
15645;SDS011;7922;43.622;1.476;2023-12-20T13:19:03;6.90;;;2.57;;
15645;SDS011;7922;43.622;1.476;2023-12-20T13:21:28;6.03;;;2.63;;
15645;SDS011;7922;43.622;1.476;2023-12-20T13:23:53;3.20;;;1.20;;
15645;SDS011;7922;43.622;1.476;2023-12-20T13:26:19;2.97;;;1.10;;
15645;SDS011;7922;43.622;1.476;2023-12-20T13:28:44;3.17;;;1.43;;
15645;SDS011;7922;43.622;1.476;2023-12-20T13:31:09;4.43;;;1.50;;
15645;SDS011;7922;43.622;1.476;2023-12-20T13:33:34;4.93;;;1.40;;
15645;SDS011;7922;43.622;1.476;2023-12-20T13:36:00;3.60;;;1.27;;
15645;SDS011;7922;43.622;1.476;2023-12-20T13:38:25;4.67;;;1.70;;
15645;SDS011;7922;43.622;1.476;2023-12-20T13:40:50;2.23;;;1.40;;
15645;SDS011;7922;43.622;1.476;2023-12-20T13:43:15;3.47;;;1.40;;
15645;SDS011;7922;43.622;1.476;2023-12-20T13:45:41;4.00;;;1.67;;
15645;SDS011;7922;43.622;1.476;2023-12-20T13:48:06;5.33;;;1.60;;
15645;SDS011;7922;43.622;1.476;2023-12-20T13:50:32;4.23;;;1.90;;
15645;SDS011;7922;43.622;1.476;2023-12-20T13:52:57;2.53;;;1.30;;
15645;SDS011;7922;43.622;1.476;2023-12-20T13:55:22;3.70;;;1.33;;
15645;SDS011;7922;43.622;1.476;2023-12-20T13:57:51;3.77;;;1.50;;
15645;SDS011;7922;43.622;1.476;2023-12-20T14:00:16;5.00;;;1.20;;
15645;SDS011;7922;43.622;1.476;2023-12-20T14:02:42;3.70;;;1.70;;
15645;SDS011;7922;43.622;1.476;2023-12-20T14:05:08;2.90;;;1.40;;
15645;SDS011;7922;43.622;1.476;2023-12-20T14:07:34;4.37;;;1.87;;
15645;SDS011;7922;43.622;1.476;2023-12-20T14:09:59;4.97;;;2.10;;
15645;SDS011;7922;43.622;1.476;2023-12-20T14:12:25;3.93;;;1.40;;
15645;SDS011;7922;43.622;1.476;2023-12-20T14:14:50;3.20;;;1.30;;
15645;SDS011;7922;43.622;1.476;2023-12-20T14:17:15;6.53;;;1.60;;
15645;SDS011;7922;43.622;1.476;2023-12-20T14:19:41;4.90;;;1.57;;
15645;SDS011;7922;43.622;1.476;2023-12-20T14:22:06;4.63;;;1.83;;
15645;SDS011;7922;43.622;1.476;2023-12-20T14:24:32;3.83;;;1.70;;
15645;SDS011;7922;43.622;1.476;2023-12-20T14:26:57;3.73;;;1.90;;
15645;SDS011;7922;43.622;1.476;2023-12-20T14:29:25;4.50;;;1.53;;
15645;SDS011;7922;43.622;1.476;2023-12-20T14:31:51;5.03;;;2.07;;
15645;SDS011;7922;43.622;1.476;2023-12-20T14:34:16;5.83;;;1.90;;
15645;SDS011;7922;43.622;1.476;2023-12-20T14:36:41;6.83;;;2.13;;
15645;SDS011;7922;43.622;1.476;2023-12-20T14:39:07;4.20;;;1.97;;
15645;SDS011;7922;43.622;1.476;2023-12-20T14:41:32;4.90;;;2.47;;
15645;SDS011;7922;43.622;1.476;2023-12-20T14:43:57;7.13;;;1.90;;
15645;SDS011;7922;43.622;1.476;2023-12-20T14:46:22;4.13;;;1.73;;